Time;durP1;ratioP1;P1;durP2;ratioP2;P2;SDS_P1;SDS_P2;PMS_P1;PMS_P2;Temp;Humidity;BMP_temperature;BMP_pressure;BME280_temperature;BME280_humidity;BME280_pressure;Samples;Min_cycle;Max_cycle;Signal;HPM_P1;HPM_P2
2022/08/15 00:02:01;;;;;;;;;;;;;;;14.77;41.82;97432.41;6220966;28;20308;-66
2022/08/15 00:05:03;;;;;;;;;;;;;;;14.70;42.16;97431.16;6220839;28;20020;-66
2022/08/15 00:08:09;;;;;;;;;;;;;;;14.65;42.68;97445.69;6221482;28;19926;-67
2022/08/15 00:11:12;;;;;;;;;;;;;;;14.59;43.22;97444.34;6220674;28;19964;-66
2022/08/15 00:14:22;;;;;;;;;;;;;;;14.59;42.82;97444.34;6221263;28;19925;-65
2022/08/15 00:17:25;;;;;;;;;;;;;;;14.54;42.95;97441.16;6220482;28;19925;-66
2022/08/15 00:20:26;;;;;;;;;;;;;;;14.48;45.27;97437.13;6220515;28;19925;-66
2022/08/15 00:23:27;;;;;;;;;;;;;;;14.47;44.40;97439.91;6222032;28;19932;-66
2022/08/15 00:26:34;;;;;;;;;;;;;;;14.56;43.36;97436.63;6225960;28;19925;-65
2022/08/15 00:29:37;;;;;;;;;;;;;;;14.57;42.82;97435.66;6225276;28;19948;-66
2022/08/15 00:32:41;;;;;;;;;;;;;;;14.55;48.14;97440.19;6208740;28;20334;-66
2022/08/15 00:35:47;;;;;;;;;;;;;;;14.62;44.42;97437.97;6225011;28;19925;-66
2022/08/15 00:38:48;;;;;;;;;;;;;;;14.65;44.36;97438.59;6225518;28;19964;-66
2022/08/15 00:41:52;;;;;;;;;;;;;;;14.61;44.55;97447.72;6224087;28;19932;-65
2022/08/15 00:44:54;;;;;;;;;;;;;;;14.59;45.52;97457.59;6224570;28;19925;-65
2022/08/15 00:51:20;;;;;;;;;;;;;;;14.55;44.66;97454.31;6224125;28;19925;-66
2022/08/15 00:54:25;;;;;;;;;;;;;;;14.49;43.91;97456.50;6224336;28;19948;-66
2022/08/15 00:57:31;;;;;;;;;;;;;;;14.36;46.01;97454.75;6224959;28;19925;-65
2022/08/15 01:00:37;;;;;;;;;;;;;;;14.32;44.38;97458.56;6224916;28;19925;-66
2022/08/15 01:03:44;;;;;;;;;;;;;;;14.34;45.26;97472.53;6224818;28;19933;-65
2022/08/15 01:06:48;;;;;;;;;;;;;;;14.31;44.47;97471.91;6224066;28;19935;-66
2022/08/15 01:09:52;;;;;;;;;;;;;;;14.26;44.49;97474.84;6224856;28;19926;-66
2022/08/15 01:12:56;;;;;;;;;;;;;;;14.20;45.15;97479.75;6223896;28;20019;-66
2022/08/15 01:15:59;;;;;;;;;;;;;;;14.19;45.34;97488.66;6224643;28;19925;-65
2022/08/15 01:19:04;;;;;;;;;;;;;;;14.18;45.57;97485.13;6223808;28;20310;-66
2022/08/15 01:22:08;;;;;;;;;;;;;;;14.25;44.40;97491.72;6224585;28;19925;-65
2022/08/15 01:25:18;;;;;;;;;;;;;;;14.26;44.64;97496.03;6223695;28;20063;-66
2022/08/15 01:28:24;;;;;;;;;;;;;;;14.29;44.23;97492.34;6224617;28;19926;-65
2022/08/15 01:31:25;;;;;;;;;;;;;;;14.31;45.57;97488.63;6223370;28;19932;-65
2022/08/15 01:34:26;;;;;;;;;;;;;;;14.37;44.24;97492.66;6223330;28;19929;-65
2022/08/15 01:37:30;;;;;;;;;;;;;;;14.44;44.33;97503.66;6223984;28;20018;-65
2022/08/15 01:40:51;;;;;;;;;;;;;;;14.42;45.49;97502.91;6223598;28;20316;-66
2022/08/15 01:43:58;;;;;;;;;;;;;;;14.44;44.32;97508.97;6224252;28;20285;-65
2022/08/15 01:47:02;;;;;;;;;;;;;;;14.42;44.65;97511.72;6224097;28;20459;-65
2022/08/15 01:50:07;;;;;;;;;;;;;;;14.46;44.63;97512.31;6223750;28;19933;-65
2022/08/15 01:53:11;;;;;;;;;;;;;;;14.50;44.29;97513.81;6223747;28;20004;-66
2022/08/15 01:56:45;;;;;;;;;;;;;;;14.59;44.12;97513.19;6223847;28;19929;-66
2022/08/15 01:59:54;;;;;;;;;;;;;;;14.71;44.25;97520.25;6207701;28;19936;-66
2022/08/15 02:02:55;;;;;;;;;;;;;;;14.77;44.22;97517.16;6222761;28;19926;-66
2022/08/15 02:05:56;;;;;;;;;;;;;;;14.86;44.10;97522.78;6223362;28;19922;-66
2022/08/15 02:09:01;;;;;;;;;;;;;;;14.93;43.81;97521.38;6223374;28;20020;-65
2022/08/15 02:12:08;;;;;;;;;;;;;;;14.96;43.67;97515.84;6223315;28;19925;-66
2022/08/15 02:15:12;;;;;;;;;;;;;;;14.95;44.17;97524.78;6222322;28;20027;-66
2022/08/15 02:18:16;;;;;;;;;;;;;;;14.96;44.48;97526.47;6223211;28;19929;-66
2022/08/15 02:21:19;;;;;;;;;;;;;;;14.97;44.14;97522.84;6223159;28;20051;-65
2022/08/15 02:24:22;;;;;;;;;;;;;;;15.03;44.31;97523.25;6222881;28;19933;-66
2022/08/15 02:27:31;;;;;;;;;;;;;;;15.15;45.94;97524.19;6222518;28;19931;-66
2022/08/15 02:30:34;;;;;;;;;;;;;;;15.33;44.20;97521.13;6222075;28;20398;-66
2022/08/15 02:33:35;;;;;;;;;;;;;;;15.49;45.29;97524.34;6222607;28;19925;-66
2022/08/15 02:36:39;;;;;;;;;;;;;;;15.69;44.65;97530.84;6222083;28;19932;-66
2022/08/15 02:39:42;;;;;;;;;;;;;;;15.90;42.88;97528.38;6222184;28;19925;-66
2022/08/15 02:42:45;;;;;;;;;;;;;;;16.03;44.80;97523.81;6222838;28;19964;-65
2022/08/15 02:45:49;;;;;;;;;;;;;;;16.09;43.45;97528.66;6222226;28;19929;-66
2022/08/15 02:48:53;;;;;;;;;;;;;;;16.11;43.26;97531.22;6222319;28;19925;-65
2022/08/15 02:51:54;;;;;;;;;;;;;;;16.09;43.82;97528.66;6221615;28;20042;-66
2022/08/15 02:54:59;;;;;;;;;;;;;;;16.08;45.60;97531.44;6222281;28;19929;-65
2022/08/15 02:58:03;;;;;;;;;;;;;;;16.09;45.27;97533.97;6222222;28;20020;-66
2022/08/15 03:01:09;;;;;;;;;;;;;;;16.15;43.53;97530.84;6222453;28;19925;-66
2022/08/15 03:04:17;;;;;;;;;;;;;;;16.18;43.62;97537.72;6222100;28;20346;-66
2022/08/15 03:07:21;;;;;;;;;;;;;;;16.24;43.32;97533.75;6220897;28;19936;-65
2022/08/15 03:10:22;;;;;;;;;;;;;;;16.30;44.07;97535.91;6222157;28;19925;-65
2022/08/15 03:13:28;;;;;;;;;;;;;;;16.35;44.22;97528.44;6222029;28;19926;-66
2022/08/15 03:16:30;;;;;;;;;;;;;;;16.43;44.55;97530.50;6221797;28;19932;-65
2022/08/15 03:19:31;;;;;;;;;;;;;;;16.45;44.68;97531.25;6221840;28;19925;-65
2022/08/15 03:22:41;;;;;;;;;;;;;;;16.55;44.41;97529.53;6221834;28;19932;-65
2022/08/15 03:25:45;;;;;;;;;;;;;;;16.60;44.62;97535.34;6221002;28;19933;-65
2022/08/15 03:28:46;;;;;;;;;;;;;;;16.65;44.14;97540.31;6220842;28;19925;-65
2022/08/15 03:31:51;;;;;;;;;;;;;;;16.73;43.95;97543.19;6221013;28;20342;-66
2022/08/15 03:34:52;;;;;;;;;;;;;;;16.79;43.65;97532.13;6220937;28;19925;-66
2022/08/15 03:37:54;;;;;;;;;;;;;;;16.89;43.39;97538.38;6221561;28;19925;-66
2022/08/15 03:40:55;;;;;;;;;;;;;;;16.94;43.23;97536.19;6221642;28;19933;-66
2022/08/15 03:43:56;;;;;;;;;;;;;;;16.99;43.01;97538.50;6221273;28;20311;-66
2022/08/15 03:47:01;;;;;;;;;;;;;;;17.09;42.92;97541.25;6221125;28;19930;-66
2022/08/15 03:50:05;;;;;;;;;;;;;;;17.18;42.62;97546.69;6221372;28;19931;-66
2022/08/15 03:53:07;;;;;;;;;;;;;;;17.30;42.58;97542.19;6220391;28;20388;-65
2022/08/15 03:56:12;;;;;;;;;;;;;;;17.44;42.21;97547.22;6221372;28;19925;-66
2022/08/15 03:59:16;;;;;;;;;;;;;;;17.59;41.92;97545.09;6224052;28;19947;-65
2022/08/15 04:02:17;;;;;;;;;;;;;;;17.68;41.90;97551.47;6209045;28;20552;-65
2022/08/15 04:05:20;;;;;;;;;;;;;;;17.77;41.63;97549.88;6226221;28;19925;-65
2022/08/15 04:08:25;;;;;;;;;;;;;;;17.90;41.26;97559.41;6226332;28;19956;-65
2022/08/15 04:11:30;;;;;;;;;;;;;;;17.99;41.02;97554.28;6225315;28;19926;-68
2022/08/15 04:14:33;;;;;;;;;;;;;;;18.10;41.02;97556.88;6226158;28;19925;-65
2022/08/15 04:17:37;;;;;;;;;;;;;;;18.24;40.51;97553.06;6225260;28;20423;-65
2022/08/15 04:20:40;;;;;;;;;;;;;;;18.36;40.48;97549.31;6226109;28;19925;-67
2022/08/15 04:23:44;;;;;;;;;;;;;;;18.49;40.18;97554.47;6224883;28;19926;-68
2022/08/15 04:26:47;;;;;;;;;;;;;;;18.60;39.85;97555.22;6192550;28;19933;-66
2022/08/15 04:29:51;;;;;;;;;;;;;;;18.79;39.79;97559.81;6225691;28;20024;-67
2022/08/15 04:32:56;;;;;;;;;;;;;;;18.90;39.54;97550.03;6225548;28;19926;-66
2022/08/15 04:36:04;;;;;;;;;;;;;;;19.00;38.86;97542.91;6225366;28;19941;-66
2022/08/15 04:39:08;;;;;;;;;;;;;;;19.13;38.85;97546.16;6225221;28;19926;-66
2022/08/15 04:42:10;;;;;;;;;;;;;;;19.24;38.69;97554.06;6224597;28;19929;-66
2022/08/15 04:45:14;;;;;;;;;;;;;;;19.45;38.50;97551.31;6224117;28;19926;-66
2022/08/15 04:48:17;;;;;;;;;;;;;;;19.65;37.77;97546.84;6224721;28;19925;-65
2022/08/15 04:51:21;;;;;;;;;;;;;;;19.74;37.71;97551.34;6225062;28;19926;-67
2022/08/15 04:54:24;;;;;;;;;;;;;;;20.02;37.11;97550.66;6224666;28;19925;-66
2022/08/15 04:57:27;;;;;;;;;;;;;;;20.87;35.86;97560.44;6192075;28;19925;-67
2022/08/15 05:00:37;;;;;;;;;;;;;;;22.39;33.79;97554.34;6225274;28;20441;-69
2022/08/15 05:03:39;;;;;;;;;;;;;;;24.09;31.60;97559.69;6223925;28;19925;-65
2022/08/15 05:06:41;;;;;;;;;;;;;;;28.28;27.27;97560.78;6224295;28;19926;-67
2022/08/15 05:09:43;;;;;;;;;;;;;;;32.69;23.38;97569.72;6224580;28;19930;-65
2022/08/15 05:12:49;;;;;;;;;;;;;;;36.08;19.27;97576.25;6224642;28;19926;-66
2022/08/15 05:15:53;;;;;;;;;;;;;;;39.28;18.61;97578.81;6224633;28;19972;-65
2022/08/15 05:18:55;;;;;;;;;;;;;;;42.22;17.50;97585.69;6224091;28;20028;-65
2022/08/15 05:21:59;;;;;;;;;;;;;;;44.19;16.55;97587.00;6224371;28;19925;-65
2022/08/15 05:25:02;;;;;;;;;;;;;;;44.94;14.36;97584.13;6224106;28;19925;-66
2022/08/15 05:28:06;;;;;;;;;;;;;;;44.66;13.61;97590.72;6224417;28;19925;-66
2022/08/15 05:31:08;;;;;;;;;;;;;;;44.65;13.67;97586.31;6222847;28;19932;-66
2022/08/15 05:34:11;;;;;;;;;;;;;;;45.57;12.54;97587.41;6224086;28;20016;-67
2022/08/15 05:37:13;;;;;;;;;;;;;;;44.55;10.32;97579.78;6206850;28;19972;-66
2022/08/15 05:40:17;;;;;;;;;;;;;;;45.62;8.47;97578.97;6223818;28;19926;-65
2022/08/15 05:43:40;;;;;;;;;;;;;;;46.54;12.11;97582.47;6223980;28;19925;-67
2022/08/15 05:46:57;;;;;;;;;;;;;;;46.21;12.29;97574.34;6209293;28;19926;-66
2022/08/15 05:50:12;;;;;;;;;;;;;;;46.88;8.13;97581.06;6189487;28;19937;-67
2022/08/15 05:53:29;;;;;;;;;;;;;;;48.60;9.60;97589.47;6223268;28;20395;-66
2022/08/15 05:56:53;;;;;;;;;;;;;;;50.63;6.70;97571.00;6205749;28;20422;-66
2022/08/15 06:00:02;;;;;;;;;;;;;;;52.10;7.17;97581.59;6223676;28;20406;-65
2022/08/15 06:03:14;;;;;;;;;;;;;;;52.37;7.30;97580.81;6222820;28;19925;-65
2022/08/15 06:06:20;;;;;;;;;;;;;;;52.32;7.02;97575.44;6223780;28;19929;-66
2022/08/15 06:09:26;;;;;;;;;;;;;;;52.33;6.62;97570.63;6223559;28;19929;-67
2022/08/15 06:12:39;;;;;;;;;;;;;;;50.93;6.26;97566.06;6222344;28;20074;-67
2022/08/15 06:15:51;;;;;;;;;;;;;;;50.01;7.01;97567.09;6223465;28;19926;-65
2022/08/15 06:18:55;;;;;;;;;;;;;;;49.89;6.60;97563.03;6223376;28;20387;-66
2022/08/15 06:22:02;;;;;;;;;;;;;;;50.46;6.40;97563.59;6221756;28;19965;-65
2022/08/15 06:25:16;;;;;;;;;;;;;;;51.45;6.06;97562.69;6223365;28;19925;-65
2022/08/15 06:28:22;;;;;;;;;;;;;;;51.11;6.12;97564.75;6223100;28;19925;-64
2022/08/15 06:31:32;;;;;;;;;;;;;;;51.81;5.21;97558.22;6206084;28;19925;-66
2022/08/15 06:34:42;;;;;;;;;;;;;;;51.86;5.40;97557.97;6222196;28;20417;-65
2022/08/15 06:37:43;;;;;;;;;;;;;;;52.66;5.58;97556.31;6221822;28;20307;-65
2022/08/15 06:40:50;;;;;;;;;;;;;;;53.59;4.76;97553.13;6222805;28;19925;-65
2022/08/15 06:43:53;;;;;;;;;;;;;;;54.56;4.18;97561.75;6222599;28;19925;-66
2022/08/15 06:47:07;;;;;;;;;;;;;;;53.15;4.53;97559.69;6222517;28;19925;-65
2022/08/15 06:50:15;;;;;;;;;;;;;;;52.58;4.29;97555.34;6221971;28;19925;-65
2022/08/15 06:53:26;;;;;;;;;;;;;;;53.32;4.75;97547.25;6222402;28;20415;-65
2022/08/15 06:56:30;;;;;;;;;;;;;;;54.62;4.53;97546.16;6222094;28;19925;-65
2022/08/15 06:59:59;;;;;;;;;;;;;;;54.04;3.82;97541.34;6222100;28;19933;-65
2022/08/15 07:03:15;;;;;;;;;;;;;;;52.99;4.34;97546.78;6220156;28;19925;-65
2022/08/15 07:06:22;;;;;;;;;;;;;;;52.86;4.69;97543.22;6222081;28;20024;-65
2022/08/15 07:09:40;;;;;;;;;;;;;;;53.42;4.39;97536.66;6222097;28;19992;-65
2022/08/15 07:12:56;;;;;;;;;;;;;;;53.63;4.43;97537.16;6221772;28;20303;-65
2022/08/15 07:16:18;;;;;;;;;;;;;;;54.72;3.61;97539.13;6221086;28;19929;-65
2022/08/15 07:19:19;;;;;;;;;;;;;;;54.20;4.17;97532.84;6207769;28;19925;-66
2022/08/15 07:22:24;;;;;;;;;;;;;;;55.53;3.89;97538.91;6221653;28;20331;-65
2022/08/15 07:25:32;;;;;;;;;;;;;;;56.57;2.95;97548.00;6221745;28;19925;-65
2022/08/15 07:28:42;;;;;;;;;;;;;;;56.28;2.86;97547.66;6221785;28;20016;-65
2022/08/15 07:31:45;;;;;;;;;;;;;;;55.84;3.60;97551.09;6221461;28;19941;-65
2022/08/15 07:34:56;;;;;;;;;;;;;;;56.45;3.35;97541.38;6203469;28;20385;-67
2022/08/15 07:37:59;;;;;;;;;;;;;;;57.84;2.94;97552.38;6203131;28;19930;-64
2022/08/15 07:41:27;;;;;;;;;;;;;;;58.85;3.04;97533.75;6221603;28;20311;-65
2022/08/15 07:44:30;;;;;;;;;;;;;;;59.40;3.09;97533.41;6212003;28;19948;-65
2022/08/15 07:47:35;;;;;;;;;;;;;;;59.98;2.81;97534.09;6222708;28;19925;-65
2022/08/15 07:50:41;;;;;;;;;;;;;;;60.19;2.64;97533.22;6225289;28;19930;-65
2022/08/15 07:53:53;;;;;;;;;;;;;;;60.20;2.76;97523.50;6225383;28;19925;-66
2022/08/15 07:56:59;;;;;;;;;;;;;;;60.37;2.40;97527.47;6226556;28;19983;-65
2022/08/15 08:00:15;;;;;;;;;;;;;;;59.48;2.63;97509.44;6228478;28;19925;-67
2022/08/15 08:03:21;;;;;;;;;;;;;;;59.19;2.87;97516.38;6222574;28;20422;-67
2022/08/15 08:06:30;;;;;;;;;;;;;;;59.63;2.13;97503.78;6206265;28;19926;-65
2022/08/15 08:09:42;;;;;;;;;;;;;;;58.87;2.22;97508.66;6224402;28;19932;-66
2022/08/15 08:13:03;;;;;;;;;;;;;;;58.30;2.63;97500.81;6204380;28;19925;-66
2022/08/15 08:16:28;;;;;;;;;;;;;;;58.40;2.70;97504.91;6221517;28;19925;-65
2022/08/15 08:19:58;;;;;;;;;;;;;;;57.40;2.54;97487.38;6221542;28;19933;-66
2022/08/15 08:23:04;;;;;;;;;;;;;;;57.67;2.58;97485.91;6218400;28;19925;-64
2022/08/15 08:26:17;;;;;;;;;;;;;;;58.13;2.61;97484.56;6221128;28;19925;-66
2022/08/15 08:29:22;;;;;;;;;;;;;;;58.17;3.04;97491.06;6220995;28;19929;-66
2022/08/15 08:32:26;;;;;;;;;;;;;;;58.50;2.58;97489.94;6203501;28;20024;-65
2022/08/15 08:35:39;;;;;;;;;;;;;;;58.58;2.32;97485.91;6220972;28;19926;-64
2022/08/15 08:38:44;;;;;;;;;;;;;;;58.53;2.54;97480.63;6221084;28;20395;-66
2022/08/15 08:42:05;;;;;;;;;;;;;;;58.40;2.75;97487.91;6203213;28;19925;-65
2022/08/15 08:45:11;;;;;;;;;;;;;;;57.12;2.92;97477.44;6222973;28;19928;-65
2022/08/15 08:48:23;;;;;;;;;;;;;;;56.58;3.04;97476.16;6225429;28;19925;-66
2022/08/15 08:51:45;;;;;;;;;;;;;;;56.57;3.36;97468.88;6225019;28;19926;-66
2022/08/15 08:54:49;;;;;;;;;;;;;;;56.68;2.95;97469.78;6225291;28;19930;-66
2022/08/15 08:57:53;;;;;;;;;;;;;;;56.18;3.22;97469.25;6225173;28;19925;-65
2022/08/15 09:00:58;;;;;;;;;;;;;;;55.53;3.41;97461.91;6225033;28;19925;-68
2022/08/15 09:04:07;;;;;;;;;;;;;;;54.81;4.02;97454.31;6224916;28;19932;-66
2022/08/15 09:07:13;;;;;;;;;;;;;;;52.87;4.57;97446.50;6224870;28;19925;-66
2022/08/15 09:10:22;;;;;;;;;;;;;;;51.05;5.03;97442.81;6224720;28;20403;-65
2022/08/15 09:13:33;;;;;;;;;;;;;;;49.99;5.49;97435.06;6224530;28;19926;-67
2022/08/15 09:16:38;;;;;;;;;;;;;;;50.84;5.02;97428.06;6224285;28;19926;-65
2022/08/15 09:19:45;;;;;;;;;;;;;;;50.19;5.24;97436.19;6224356;28;19930;-65
2022/08/15 09:22:49;;;;;;;;;;;;;;;50.16;5.61;97420.91;6223905;28;19936;-66
2022/08/15 09:25:56;;;;;;;;;;;;;;;50.84;5.18;97422.47;6223585;28;19926;-66
2022/08/15 09:29:02;;;;;;;;;;;;;;;51.41;4.93;97419.56;6206873;28;19932;-66
2022/08/15 09:32:14;;;;;;;;;;;;;;;52.00;4.71;97434.94;6223902;28;19929;-64
2022/08/15 09:35:15;;;;;;;;;;;;;;;52.50;4.59;97427.91;6205455;28;19991;-64
2022/08/15 09:38:39;;;;;;;;;;;;;;;52.91;4.66;97428.53;6223833;28;19929;-64
2022/08/15 09:41:49;;;;;;;;;;;;;;;51.81;5.00;97426.34;6223150;28;19932;-65
2022/08/15 09:45:11;;;;;;;;;;;;;;;50.95;5.36;97438.47;6224209;28;19926;-65
2022/08/15 09:48:33;;;;;;;;;;;;;;;49.77;5.87;97428.69;6223693;28;20311;-65
2022/08/15 09:52:02;;;;;;;;;;;;;;;49.35;6.21;97420.25;6223478;28;19925;-65
2022/08/15 09:55:26;;;;;;;;;;;;;;;49.56;5.65;97413.84;6222860;28;20031;-65
2022/08/15 09:58:35;;;;;;;;;;;;;;;47.74;6.87;97409.72;6223215;28;20295;-65
2022/08/15 10:01:48;;;;;;;;;;;;;;;47.22;6.92;97413.25;6222520;28;19925;-66
2022/08/15 10:04:49;;;;;;;;;;;;;;;47.49;6.90;97411.38;6222035;28;19925;-65
2022/08/15 10:07:55;;;;;;;;;;;;;;;47.21;7.07;97401.28;6222602;28;20290;-65
2022/08/15 10:11:12;;;;;;;;;;;;;;;47.19;6.89;97402.75;6222986;28;20000;-65
2022/08/15 10:14:19;;;;;;;;;;;;;;;48.12;6.28;97402.31;6223134;28;19929;-65
2022/08/15 10:17:29;;;;;;;;;;;;;;;48.38;6.21;97401.44;6222112;28;20018;-66
2022/08/15 10:20:33;;;;;;;;;;;;;;;47.74;6.67;97402.19;6223097;28;20387;-64
2022/08/15 10:23:37;;;;;;;;;;;;;;;46.98;6.94;97399.75;6222000;28;19948;-65
2022/08/15 10:27:00;;;;;;;;;;;;;;;46.36;7.19;97404.25;6222940;28;20498;-65
2022/08/15 10:30:20;;;;;;;;;;;;;;;44.97;7.75;97397.47;6222044;28;19951;-64
2022/08/15 10:33:50;;;;;;;;;;;;;;;44.57;8.14;97394.38;6222130;28;19925;-65
2022/08/15 10:37:15;;;;;;;;;;;;;;;45.17;7.57;97390.66;6221415;28;19925;-65
2022/08/15 10:40:40;;;;;;;;;;;;;;;45.51;7.31;97399.66;6221977;28;19925;-64
2022/08/15 10:43:47;;;;;;;;;;;;;;;44.93;7.75;97390.91;6221903;28;20353;-65
2022/08/15 10:47:06;;;;;;;;;;;;;;;44.47;7.82;97388.19;6221305;28;20375;-65
2022/08/15 10:50:25;;;;;;;;;;;;;;;44.80;7.60;97386.16;6221613;28;19925;-64
2022/08/15 10:53:30;;;;;;;;;;;;;;;45.30;7.78;97383.44;6222148;28;19925;-65
2022/08/15 10:56:38;;;;;;;;;;;;;;;45.60;7.62;97392.22;6222213;28;20016;-65
2022/08/15 10:59:45;;;;;;;;;;;;;;;45.85;7.51;97388.81;6222113;28;19925;-64
2022/08/15 11:02:54;;;;;;;;;;;;;;;45.60;7.69;97392.22;6221604;28;19931;-65
2022/08/15 11:05:58;;;;;;;;;;;;;;;44.97;7.82;97391.09;6221490;28;19933;-65
2022/08/15 11:09:07;;;;;;;;;;;;;;;44.58;7.95;97389.63;6221888;28;19925;-66
2022/08/15 11:12:10;;;;;;;;;;;;;;;44.64;7.92;97395.91;6221336;28;19932;-66
2022/08/15 11:15:16;;;;;;;;;;;;;;;43.72;8.46;97390.81;6221161;28;19926;-66
2022/08/15 11:18:29;;;;;;;;;;;;;;;43.58;8.66;97389.94;6221707;28;19969;-65
2022/08/15 11:21:43;;;;;;;;;;;;;;;43.45;8.64;97385.13;6220321;28;19925;-65
2022/08/15 11:25:00;;;;;;;;;;;;;;;43.42;8.66;97381.00;6221864;28;19925;-65
2022/08/15 11:28:18;;;;;;;;;;;;;;;43.52;8.46;97371.72;6217416;28;19926;-66
2022/08/15 11:31:20;;;;;;;;;;;;;;;43.43;8.94;97376.31;6221645;28;19925;-65
2022/08/15 11:34:26;;;;;;;;;;;;;;;42.89;9.01;97378.41;6204011;28;19929;-65
2022/08/15 11:37:31;;;;;;;;;;;;;;;41.40;9.90;97367.84;6221520;28;20280;-65
2022/08/15 11:40:37;;;;;;;;;;;;;;;41.33;9.72;97372.84;6221405;28;19921;-63
2022/08/15 11:43:40;;;;;;;;;;;;;;;41.50;9.78;97370.59;6221380;28;19929;-64
2022/08/15 11:46:45;;;;;;;;;;;;;;;41.62;9.92;97372.16;6221388;28;19943;-65
2022/08/15 11:49:50;;;;;;;;;;;;;;;41.34;9.88;97363.47;6221185;28;19933;-65
2022/08/15 11:52:55;;;;;;;;;;;;;;;40.55;10.33;97363.25;6221043;28;19926;-65
2022/08/15 11:55:59;;;;;;;;;;;;;;;39.89;10.73;97355.09;6221303;28;19929;-65
2022/08/15 11:59:11;;;;;;;;;;;;;;;39.72;10.85;97358.94;6221248;28;19929;-65
2022/08/15 12:02:14;;;;;;;;;;;;;;;39.66;10.85;97354.53;6203358;28;20005;-65
2022/08/15 12:05:25;;;;;;;;;;;;;;;39.03;11.38;97356.59;6220632;28;19925;-65
2022/08/15 12:08:30;;;;;;;;;;;;;;;38.24;11.52;97355.63;6203841;28;19929;-65
2022/08/15 12:11:38;;;;;;;;;;;;;;;37.92;11.71;97352.94;6221002;28;20329;-66
2022/08/15 12:14:45;;;;;;;;;;;;;;;37.72;12.17;97348.13;6220815;28;20280;-65
2022/08/15 12:18:03;;;;;;;;;;;;;;;37.57;12.20;97350.72;6220444;28;20315;-65
2022/08/15 12:21:09;;;;;;;;;;;;;;;37.11;11.95;97355.75;6224759;28;19925;-65
2022/08/15 12:24:20;;;;;;;;;;;;;;;37.16;12.08;97350.31;6225805;28;20307;-66
2022/08/15 12:27:22;;;;;;;;;;;;;;;37.28;12.40;97348.22;6225485;28;19926;-66
2022/08/15 12:30:26;;;;;;;;;;;;;;;37.11;12.16;97348.31;6225314;28;19925;-65
2022/08/15 12:33:31;;;;;;;;;;;;;;;36.73;12.41;97338.28;6207900;28;19929;-66
2022/08/15 12:36:34;;;;;;;;;;;;;;;36.45;12.48;97344.75;6225079;28;19926;-65
2022/08/15 12:39:43;;;;;;;;;;;;;;;36.28;12.94;97336.56;6224642;28;19925;-65
2022/08/15 12:42:45;;;;;;;;;;;;;;;36.17;13.05;97344.66;6225304;28;19925;-65
2022/08/15 12:45:49;;;;;;;;;;;;;;;36.16;12.90;97343.00;6225106;28;19926;-65
2022/08/15 12:48:52;;;;;;;;;;;;;;;36.08;13.04;97339.84;6207408;28;19926;-66
2022/08/15 12:51:55;;;;;;;;;;;;;;;35.88;13.07;97340.34;6224756;28;19925;-67
2022/08/15 12:54:58;;;;;;;;;;;;;;;35.47;13.54;97334.16;6224746;28;20055;-66
2022/08/15 12:58:02;;;;;;;;;;;;;;;35.27;13.65;97335.50;6224370;28;19926;-65
2022/08/15 13:01:10;;;;;;;;;;;;;;;34.92;14.04;97324.69;6224335;28;19921;-66
2022/08/15 13:04:14;;;;;;;;;;;;;;;34.19;14.26;97334.34;6224374;28;19925;-65
2022/08/15 13:07:18;;;;;;;;;;;;;;;33.86;14.58;97329.44;6224421;28;20388;-65
2022/08/15 13:10:22;;;;;;;;;;;;;;;33.69;14.44;97329.34;6224346;28;19929;-66
2022/08/15 13:13:26;;;;;;;;;;;;;;;33.31;14.81;97333.28;6224413;28;19987;-66
2022/08/15 13:16:30;;;;;;;;;;;;;;;32.72;15.62;97332.19;6224872;28;19951;-66
2022/08/15 13:26:22;;;;;;;;;;;;;;;31.07;16.83;97325.31;6224013;28;20028;-65
2022/08/15 13:29:26;;;;;;;;;;;;;;;30.78;16.97;97330.25;6224414;28;19947;-66
2022/08/15 13:32:30;;;;;;;;;;;;;;;30.58;16.90;97326.81;6223908;28;19921;-66
2022/08/15 13:35:32;;;;;;;;;;;;;;;30.36;17.23;97318.94;6223945;28;20299;-65
2022/08/15 13:38:41;;;;;;;;;;;;;;;30.10;17.35;97319.00;6223889;28;20032;-66
2022/08/15 13:41:44;;;;;;;;;;;;;;;29.80;17.85;97316.75;6223853;28;20283;-66
2022/08/15 13:44:47;;;;;;;;;;;;;;;29.46;18.24;97315.91;6205734;28;19925;-65
2022/08/15 13:47:51;;;;;;;;;;;;;;;29.40;18.04;97318.63;6223776;28;19929;-65
2022/08/15 13:50:54;;;;;;;;;;;;;;;29.34;18.03;97317.59;6223652;28;20399;-65
2022/08/15 13:53:58;;;;;;;;;;;;;;;29.36;18.16;97320.09;6223644;28;19959;-65
2022/08/15 13:57:01;;;;;;;;;;;;;;;29.48;18.25;97321.97;6223471;28;19925;-67
2022/08/15 14:00:10;;;;;;;;;;;;;;;29.48;18.22;97324.69;6206024;28;19925;-65
2022/08/15 14:03:13;;;;;;;;;;;;;;;29.48;18.23;97311.13;6223359;28;19925;-65
2022/08/15 14:06:16;;;;;;;;;;;;;;;29.31;18.59;97312.59;6205758;28;19925;-66
2022/08/15 14:09:20;;;;;;;;;;;;;;;29.05;18.89;97313.38;6223358;28;19921;-65
2022/08/15 14:12:25;;;;;;;;;;;;;;;28.77;18.94;97316.22;6205807;28;20311;-65
2022/08/15 14:15:28;;;;;;;;;;;;;;;28.57;19.61;97310.72;6205743;28;19921;-66
2022/08/15 14:18:35;;;;;;;;;;;;;;;28.28;19.86;97317.22;6205442;28;19925;-65
2022/08/15 14:21:38;;;;;;;;;;;;;;;28.06;20.01;97317.34;6205394;28;19925;-65
2022/08/15 14:24:41;;;;;;;;;;;;;;;27.87;20.03;97315.34;6222643;28;19926;-65
2022/08/15 14:27:45;;;;;;;;;;;;;;;27.70;20.60;97315.59;6222661;28;20008;-66
2022/08/15 14:30:48;;;;;;;;;;;;;;;27.54;20.81;97321.28;6222520;28;19997;-64
2022/08/15 14:33:51;;;;;;;;;;;;;;;27.38;20.84;97324.31;6222304;28;20311;-66
2022/08/15 14:36:55;;;;;;;;;;;;;;;27.25;21.04;97312.34;6222519;28;19925;-65
2022/08/15 14:40:00;;;;;;;;;;;;;;;27.10;20.87;97325.88;6222382;28;19925;-65
2022/08/15 14:43:04;;;;;;;;;;;;;;;26.86;21.10;97323.53;6221826;28;19925;-66
2022/08/15 14:46:11;;;;;;;;;;;;;;;26.63;21.29;97323.72;6222422;28;19926;-65
2022/08/15 14:49:14;;;;;;;;;;;;;;;26.37;21.47;97319.63;6222346;28;20300;-65
2022/08/15 14:52:18;;;;;;;;;;;;;;;26.12;21.60;97323.66;6222371;28;20403;-66
2022/08/15 14:55:21;;;;;;;;;;;;;;;25.88;21.96;97320.22;6222252;28;19925;-66
2022/08/15 14:58:27;;;;;;;;;;;;;;;25.69;22.19;97326.94;6221833;28;19925;-66
2022/08/15 15:01:33;;;;;;;;;;;;;;;25.47;22.47;97325.97;6222166;28;20284;-66
2022/08/15 15:04:37;;;;;;;;;;;;;;;25.29;22.64;97338.94;6220146;28;19925;-65
2022/08/15 15:07:44;;;;;;;;;;;;;;;25.10;22.79;97342.94;6221160;28;20207;-66
2022/08/15 15:10:48;;;;;;;;;;;;;;;24.94;23.28;97338.50;6221980;28;19925;-64
2022/08/15 15:13:51;;;;;;;;;;;;;;;24.81;23.48;97343.63;6221457;28;20295;-65
2022/08/15 15:16:55;;;;;;;;;;;;;;;24.60;23.77;97342.41;6221747;28;19925;-66
2022/08/15 15:19:59;;;;;;;;;;;;;;;24.39;23.53;97334.06;6221581;28;20391;-65
2022/08/15 15:23:03;;;;;;;;;;;;;;;24.22;23.92;97337.84;6221591;28;19925;-66
2022/08/15 15:26:07;;;;;;;;;;;;;;;24.09;23.90;97339.25;6221706;28;19925;-66
2022/08/15 15:29:12;;;;;;;;;;;;;;;23.91;23.98;97338.59;6221593;28;19921;-65
2022/08/15 15:32:16;;;;;;;;;;;;;;;23.71;24.31;97352.41;6221289;28;20407;-66
2022/08/15 15:35:20;;;;;;;;;;;;;;;23.54;24.37;97348.03;6221516;28;19929;-66
2022/08/15 15:38:23;;;;;;;;;;;;;;;23.42;24.52;97346.72;6221526;28;20395;-65
2022/08/15 15:41:26;;;;;;;;;;;;;;;23.30;24.67;97349.75;6221235;28;19925;-65
2022/08/15 15:44:29;;;;;;;;;;;;;;;23.17;24.66;97354.75;6221142;28;19930;-65
2022/08/15 15:47:33;;;;;;;;;;;;;;;23.06;24.95;97352.41;6203886;28;19925;-65
2022/08/15 15:50:37;;;;;;;;;;;;;;;22.98;24.98;97352.41;6221193;28;19925;-66
2022/08/15 15:53:40;;;;;;;;;;;;;;;22.88;25.03;97354.38;6220291;28;20307;-65
2022/08/15 15:56:44;;;;;;;;;;;;;;;22.81;25.25;97349.66;6221242;28;19929;-65
2022/08/15 15:59:47;;;;;;;;;;;;;;;22.72;25.73;97356.00;6221240;28;20368;-66
2022/08/15 16:02:52;;;;;;;;;;;;;;;22.63;25.73;97359.69;6221275;28;20066;-66
2022/08/15 16:05:57;;;;;;;;;;;;;;;22.53;25.65;97356.28;6221093;28;19925;-66
2022/08/15 16:09:01;;;;;;;;;;;;;;;22.46;25.60;97366.00;6203662;28;19925;-66
2022/08/15 16:12:16;;;;;;;;;;;;;;;22.38;25.90;97374.84;6221086;28;20396;-66
2022/08/15 16:15:36;;;;;;;;;;;;;;;22.29;26.45;97371.28;6220502;28;20303;-66
2022/08/15 16:18:47;;;;;;;;;;;;;;;22.23;26.54;97376.47;6220742;28;19925;-66
2022/08/15 16:21:57;;;;;;;;;;;;;;;22.11;27.07;97378.56;6203059;28;19925;-66
2022/08/15 16:25:08;;;;;;;;;;;;;;;21.98;27.25;97369.09;6220488;28;19925;-65
2022/08/15 16:28:36;;;;;;;;;;;;;;;21.84;27.25;97383.06;6220827;28;19925;-66